sensor_id;sensor_type;location;lat;lon;timestamp;P1;durP1;ratioP1;P2;durP2;ratioP2
34505;SDS011;20748;42.632;23.198;2024-03-06T00:01:28;21.65;;;9.50;;
34505;SDS011;20748;42.632;23.198;2024-03-06T00:04:02;16.15;;;7.43;;
34505;SDS011;20748;42.632;23.198;2024-03-06T00:06:36;19.77;;;7.65;;
34505;SDS011;20748;42.632;23.198;2024-03-06T00:09:11;18.38;;;7.97;;
34505;SDS011;20748;42.632;23.198;2024-03-06T00:11:45;19.58;;;7.65;;
34505;SDS011;20748;42.632;23.198;2024-03-06T00:14:19;17.58;;;8.27;;
34505;SDS011;20748;42.632;23.198;2024-03-06T00:16:53;22.45;;;9.05;;
34505;SDS011;20748;42.632;23.198;2024-03-06T00:19:28;23.17;;;9.98;;
34505;SDS011;20748;42.632;23.198;2024-03-06T00:22:02;20.23;;;9.18;;
34505;SDS011;20748;42.632;23.198;2024-03-06T00:24:37;20.98;;;10.07;;
34505;SDS011;20748;42.632;23.198;2024-03-06T00:27:10;30.67;;;13.63;;
34505;SDS011;20748;42.632;23.198;2024-03-06T00:29:44;27.15;;;11.75;;
34505;SDS011;20748;42.632;23.198;2024-03-06T00:32:17;25.70;;;11.80;;
34505;SDS011;20748;42.632;23.198;2024-03-06T00:34:51;20.48;;;10.75;;
34505;SDS011;20748;42.632;23.198;2024-03-06T00:37:25;29.65;;;14.52;;
34505;SDS011;20748;42.632;23.198;2024-03-06T00:40:00;34.25;;;16.63;;
34505;SDS011;20748;42.632;23.198;2024-03-06T00:42:33;31.95;;;14.70;;
34505;SDS011;20748;42.632;23.198;2024-03-06T00:45:08;36.78;;;14.27;;
34505;SDS011;20748;42.632;23.198;2024-03-06T00:47:42;28.88;;;12.65;;
34505;SDS011;20748;42.632;23.198;2024-03-06T00:50:15;20.60;;;8.30;;
34505;SDS011;20748;42.632;23.198;2024-03-06T00:52:50;17.75;;;8.73;;
34505;SDS011;20748;42.632;23.198;2024-03-06T00:55:25;19.65;;;8.45;;
34505;SDS011;20748;42.632;23.198;2024-03-06T00:57:59;19.35;;;8.63;;
34505;SDS011;20748;42.632;23.198;2024-03-06T01:00:32;23.75;;;11.90;;
34505;SDS011;20748;42.632;23.198;2024-03-06T01:03:06;28.63;;;12.60;;
34505;SDS011;20748;42.632;23.198;2024-03-06T01:05:40;29.92;;;11.60;;
34505;SDS011;20748;42.632;23.198;2024-03-06T01:08:14;24.52;;;8.60;;
34505;SDS011;20748;42.632;23.198;2024-03-06T01:10:51;22.25;;;8.57;;
34505;SDS011;20748;42.632;23.198;2024-03-06T01:13:25;28.52;;;10.20;;
34505;SDS011;20748;42.632;23.198;2024-03-06T01:15:59;23.42;;;9.25;;
34505;SDS011;20748;42.632;23.198;2024-03-06T01:18:33;23.83;;;9.68;;
34505;SDS011;20748;42.632;23.198;2024-03-06T01:21:07;24.20;;;10.75;;
34505;SDS011;20748;42.632;23.198;2024-03-06T01:23:40;23.52;;;10.30;;
34505;SDS011;20748;42.632;23.198;2024-03-06T01:26:15;22.20;;;9.30;;
34505;SDS011;20748;42.632;23.198;2024-03-06T01:28:50;29.45;;;11.98;;
34505;SDS011;20748;42.632;23.198;2024-03-06T01:31:23;30.35;;;11.75;;
34505;SDS011;20748;42.632;23.198;2024-03-06T01:33:57;28.45;;;11.88;;
34505;SDS011;20748;42.632;23.198;2024-03-06T01:36:30;25.63;;;10.27;;
34505;SDS011;20748;42.632;23.198;2024-03-06T01:39:05;24.58;;;10.00;;
34505;SDS011;20748;42.632;23.198;2024-03-06T01:41:45;15.13;;;7.15;;
34505;SDS011;20748;42.632;23.198;2024-03-06T01:44:19;21.40;;;9.88;;
34505;SDS011;20748;42.632;23.198;2024-03-06T01:46:53;22.52;;;9.70;;
34505;SDS011;20748;42.632;23.198;2024-03-06T01:49:27;14.48;;;8.25;;
34505;SDS011;20748;42.632;23.198;2024-03-06T01:52:12;17.23;;;8.68;;
34505;SDS011;20748;42.632;23.198;2024-03-06T01:54:47;20.42;;;8.43;;
34505;SDS011;20748;42.632;23.198;2024-03-06T01:57:23;17.92;;;8.40;;
34505;SDS011;20748;42.632;23.198;2024-03-06T01:59:58;21.25;;;8.95;;
34505;SDS011;20748;42.632;23.198;2024-03-06T02:02:32;22.52;;;9.68;;
34505;SDS011;20748;42.632;23.198;2024-03-06T02:05:06;25.17;;;11.32;;
34505;SDS011;20748;42.632;23.198;2024-03-06T02:07:40;29.20;;;12.13;;
34505;SDS011;20748;42.632;23.198;2024-03-06T02:10:16;24.38;;;10.68;;
34505;SDS011;20748;42.632;23.198;2024-03-06T02:12:51;28.23;;;10.23;;
34505;SDS011;20748;42.632;23.198;2024-03-06T02:15:25;21.98;;;9.48;;
34505;SDS011;20748;42.632;23.198;2024-03-06T02:18:02;19.95;;;8.75;;
34505;SDS011;20748;42.632;23.198;2024-03-06T02:20:39;11.77;;;6.35;;
34505;SDS011;20748;42.632;23.198;2024-03-06T02:23:13;15.82;;;6.80;;
34505;SDS011;20748;42.632;23.198;2024-03-06T02:25:50;20.38;;;8.85;;
34505;SDS011;20748;42.632;23.198;2024-03-06T02:28:23;21.83;;;10.63;;
34505;SDS011;20748;42.632;23.198;2024-03-06T02:30:57;22.88;;;10.18;;
34505;SDS011;20748;42.632;23.198;2024-03-06T02:33:31;20.33;;;9.25;;
34505;SDS011;20748;42.632;23.198;2024-03-06T02:36:07;24.75;;;10.88;;
34505;SDS011;20748;42.632;23.198;2024-03-06T02:38:41;23.15;;;10.23;;
34505;SDS011;20748;42.632;23.198;2024-03-06T02:41:15;19.35;;;10.27;;
34505;SDS011;20748;42.632;23.198;2024-03-06T02:43:50;22.73;;;9.32;;
34505;SDS011;20748;42.632;23.198;2024-03-06T02:46:24;39.65;;;14.27;;
34505;SDS011;20748;42.632;23.198;2024-03-06T02:48:58;33.97;;;11.55;;
34505;SDS011;20748;42.632;23.198;2024-03-06T02:51:32;47.40;;;16.70;;
34505;SDS011;20748;42.632;23.198;2024-03-06T02:54:06;47.03;;;16.35;;
34505;SDS011;20748;42.632;23.198;2024-03-06T02:56:40;18.55;;;9.10;;
34505;SDS011;20748;42.632;23.198;2024-03-06T02:59:13;20.88;;;10.38;;
34505;SDS011;20748;42.632;23.198;2024-03-06T03:01:47;22.73;;;9.95;;
34505;SDS011;20748;42.632;23.198;2024-03-06T03:04:21;21.95;;;9.52;;
34505;SDS011;20748;42.632;23.198;2024-03-06T03:06:56;25.27;;;10.63;;
34505;SDS011;20748;42.632;23.198;2024-03-06T03:09:29;23.35;;;9.35;;
34505;SDS011;20748;42.632;23.198;2024-03-06T03:12:03;26.48;;;9.85;;
34505;SDS011;20748;42.632;23.198;2024-03-06T03:14:37;24.05;;;10.80;;
34505;SDS011;20748;42.632;23.198;2024-03-06T03:17:10;32.40;;;11.82;;
34505;SDS011;20748;42.632;23.198;2024-03-06T03:19:45;21.77;;;8.23;;
34505;SDS011;20748;42.632;23.198;2024-03-06T03:22:20;20.40;;;9.52;;
34505;SDS011;20748;42.632;23.198;2024-03-06T03:24:54;25.63;;;10.30;;
34505;SDS011;20748;42.632;23.198;2024-03-06T03:27:27;30.45;;;12.65;;
34505;SDS011;20748;42.632;23.198;2024-03-06T03:30:01;26.13;;;10.35;;
34505;SDS011;20748;42.632;23.198;2024-03-06T03:32:35;19.33;;;9.70;;
34505;SDS011;20748;42.632;23.198;2024-03-06T03:35:09;25.63;;;11.13;;
34505;SDS011;20748;42.632;23.198;2024-03-06T03:37:44;26.90;;;10.85;;
34505;SDS011;20748;42.632;23.198;2024-03-06T03:40:18;20.70;;;9.35;;
34505;SDS011;20748;42.632;23.198;2024-03-06T03:42:51;25.33;;;11.00;;
34505;SDS011;20748;42.632;23.198;2024-03-06T03:45:25;20.67;;;9.80;;
34505;SDS011;20748;42.632;23.198;2024-03-06T03:47:59;25.38;;;11.18;;
34505;SDS011;20748;42.632;23.198;2024-03-06T03:50:34;27.63;;;12.57;;
34505;SDS011;20748;42.632;23.198;2024-03-06T03:53:09;32.30;;;13.05;;
34505;SDS011;20748;42.632;23.198;2024-03-06T03:55:43;26.55;;;10.77;;
34505;SDS011;20748;42.632;23.198;2024-03-06T03:58:17;28.90;;;10.35;;
34505;SDS011;20748;42.632;23.198;2024-03-06T04:00:51;24.42;;;10.20;;
34505;SDS011;20748;42.632;23.198;2024-03-06T04:03:27;18.02;;;8.73;;
34505;SDS011;20748;42.632;23.198;2024-03-06T04:06:01;17.33;;;8.85;;
34505;SDS011;20748;42.632;23.198;2024-03-06T04:08:36;21.42;;;8.23;;
34505;SDS011;20748;42.632;23.198;2024-03-06T04:11:09;18.05;;;8.80;;
34505;SDS011;20748;42.632;23.198;2024-03-06T04:13:44;16.85;;;9.13;;
34505;SDS011;20748;42.632;23.198;2024-03-06T04:16:18;18.20;;;8.35;;
34505;SDS011;20748;42.632;23.198;2024-03-06T04:18:51;16.45;;;7.95;;
34505;SDS011;20748;42.632;23.198;2024-03-06T04:21:25;14.32;;;7.88;;
34505;SDS011;20748;42.632;23.198;2024-03-06T04:24:00;20.75;;;9.35;;
34505;SDS011;20748;42.632;23.198;2024-03-06T04:26:34;21.70;;;7.80;;
34505;SDS011;20748;42.632;23.198;2024-03-06T04:29:07;17.55;;;8.65;;
34505;SDS011;20748;42.632;23.198;2024-03-06T04:31:41;18.80;;;9.50;;
34505;SDS011;20748;42.632;23.198;2024-03-06T04:34:15;16.35;;;8.88;;
34505;SDS011;20748;42.632;23.198;2024-03-06T04:36:49;17.15;;;8.90;;
34505;SDS011;20748;42.632;23.198;2024-03-06T04:39:23;23.15;;;11.07;;
34505;SDS011;20748;42.632;23.198;2024-03-06T04:41:57;22.90;;;12.43;;
34505;SDS011;20748;42.632;23.198;2024-03-06T04:44:33;18.98;;;9.98;;
34505;SDS011;20748;42.632;23.198;2024-03-06T04:47:06;23.75;;;12.20;;
34505;SDS011;20748;42.632;23.198;2024-03-06T04:49:40;26.25;;;12.27;;
34505;SDS011;20748;42.632;23.198;2024-03-06T04:52:14;28.33;;;12.25;;
34505;SDS011;20748;42.632;23.198;2024-03-06T04:54:49;23.23;;;13.73;;
34505;SDS011;20748;42.632;23.198;2024-03-06T04:57:23;32.75;;;14.35;;
34505;SDS011;20748;42.632;23.198;2024-03-06T04:59:57;37.55;;;15.38;;
34505;SDS011;20748;42.632;23.198;2024-03-06T05:02:30;35.10;;;16.65;;
34505;SDS011;20748;42.632;23.198;2024-03-06T05:05:24;30.08;;;15.93;;
34505;SDS011;20748;42.632;23.198;2024-03-06T05:08:15;28.30;;;14.40;;
34505;SDS011;20748;42.632;23.198;2024-03-06T05:11:07;28.60;;;13.38;;
34505;SDS011;20748;42.632;23.198;2024-03-06T05:13:59;41.83;;;19.00;;
34505;SDS011;20748;42.632;23.198;2024-03-06T05:16:50;38.78;;;15.38;;
34505;SDS011;20748;42.632;23.198;2024-03-06T05:19:41;27.67;;;12.80;;
34505;SDS011;20748;42.632;23.198;2024-03-06T05:22:32;31.48;;;12.75;;
34505;SDS011;20748;42.632;23.198;2024-03-06T05:25:23;30.20;;;12.52;;
34505;SDS011;20748;42.632;23.198;2024-03-06T05:28:15;23.50;;;10.13;;
34505;SDS011;20748;42.632;23.198;2024-03-06T05:31:15;21.40;;;10.50;;
34505;SDS011;20748;42.632;23.198;2024-03-06T05:34:07;20.23;;;11.23;;
34505;SDS011;20748;42.632;23.198;2024-03-06T05:36:58;23.27;;;9.73;;
34505;SDS011;20748;42.632;23.198;2024-03-06T05:39:50;22.52;;;11.13;;
34505;SDS011;20748;42.632;23.198;2024-03-06T05:42:42;23.73;;;10.23;;
34505;SDS011;20748;42.632;23.198;2024-03-06T05:45:34;26.23;;;11.88;;
34505;SDS011;20748;42.632;23.198;2024-03-06T05:48:25;27.02;;;9.80;;
34505;SDS011;20748;42.632;23.198;2024-03-06T05:51:53;20.35;;;11.15;;
34505;SDS011;20748;42.632;23.198;2024-03-06T05:54:44;35.58;;;17.27;;
34505;SDS011;20748;42.632;23.198;2024-03-06T05:57:35;27.75;;;12.80;;
34505;SDS011;20748;42.632;23.198;2024-03-06T06:00:27;32.10;;;14.52;;
34505;SDS011;20748;42.632;23.198;2024-03-06T06:03:02;31.85;;;15.43;;
34505;SDS011;20748;42.632;23.198;2024-03-06T06:05:36;41.33;;;19.77;;
34505;SDS011;20748;42.632;23.198;2024-03-06T06:08:11;31.02;;;16.02;;
34505;SDS011;20748;42.632;23.198;2024-03-06T06:10:44;30.23;;;16.20;;
34505;SDS011;20748;42.632;23.198;2024-03-06T06:13:18;35.13;;;17.33;;
34505;SDS011;20748;42.632;23.198;2024-03-06T06:15:52;39.63;;;17.63;;
34505;SDS011;20748;42.632;23.198;2024-03-06T06:18:27;39.70;;;17.45;;
34505;SDS011;20748;42.632;23.198;2024-03-06T06:21:00;36.65;;;16.42;;
34505;SDS011;20748;42.632;23.198;2024-03-06T06:23:39;18.63;;;9.55;;
34505;SDS011;20748;42.632;23.198;2024-03-06T06:26:13;26.17;;;13.50;;
34505;SDS011;20748;42.632;23.198;2024-03-06T06:28:47;23.35;;;11.05;;
34505;SDS011;20748;42.632;23.198;2024-03-06T06:31:21;21.88;;;11.40;;
34505;SDS011;20748;42.632;23.198;2024-03-06T06:33:56;26.73;;;12.45;;
34505;SDS011;20748;42.632;23.198;2024-03-06T06:36:29;25.95;;;11.90;;
34505;SDS011;20748;42.632;23.198;2024-03-06T06:39:03;29.30;;;14.50;;
34505;SDS011;20748;42.632;23.198;2024-03-06T06:41:38;22.13;;;11.63;;
34505;SDS011;20748;42.632;23.198;2024-03-06T06:44:12;22.50;;;12.02;;
34505;SDS011;20748;42.632;23.198;2024-03-06T06:46:46;19.20;;;9.23;;
34505;SDS011;20748;42.632;23.198;2024-03-06T06:49:21;22.92;;;9.48;;
34505;SDS011;20748;42.632;23.198;2024-03-06T06:51:54;19.55;;;9.38;;
34505;SDS011;20748;42.632;23.198;2024-03-06T06:54:28;19.70;;;10.55;;
34505;SDS011;20748;42.632;23.198;2024-03-06T06:57:01;21.52;;;9.90;;
34505;SDS011;20748;42.632;23.198;2024-03-06T06:59:36;32.65;;;12.18;;
34505;SDS011;20748;42.632;23.198;2024-03-06T07:02:11;19.33;;;10.18;;
34505;SDS011;20748;42.632;23.198;2024-03-06T07:04:46;23.33;;;10.85;;
34505;SDS011;20748;42.632;23.198;2024-03-06T07:07:20;23.45;;;9.70;;
34505;SDS011;20748;42.632;23.198;2024-03-06T07:09:54;26.05;;;10.43;;
34505;SDS011;20748;42.632;23.198;2024-03-06T07:12:28;22.08;;;11.40;;
34505;SDS011;20748;42.632;23.198;2024-03-06T07:15:02;22.25;;;9.18;;
34505;SDS011;20748;42.632;23.198;2024-03-06T07:17:36;16.17;;;8.10;;
34505;SDS011;20748;42.632;23.198;2024-03-06T07:20:12;21.20;;;9.60;;
34505;SDS011;20748;42.632;23.198;2024-03-06T07:22:46;17.45;;;7.63;;
34505;SDS011;20748;42.632;23.198;2024-03-06T07:25:19;21.67;;;9.32;;
34505;SDS011;20748;42.632;23.198;2024-03-06T07:27:54;14.75;;;7.25;;
34505;SDS011;20748;42.632;23.198;2024-03-06T07:30:27;21.90;;;9.65;;
34505;SDS011;20748;42.632;23.198;2024-03-06T07:33:02;15.18;;;8.50;;
34505;SDS011;20748;42.632;23.198;2024-03-06T07:35:38;19.77;;;8.45;;
34505;SDS011;20748;42.632;23.198;2024-03-06T07:38:12;20.17;;;7.63;;
34505;SDS011;20748;42.632;23.198;2024-03-06T07:40:46;27.67;;;12.57;;
34505;SDS011;20748;42.632;23.198;2024-03-06T07:43:19;15.73;;;7.65;;
34505;SDS011;20748;42.632;23.198;2024-03-06T07:45:53;13.48;;;7.35;;
34505;SDS011;20748;42.632;23.198;2024-03-06T07:48:27;16.60;;;7.85;;
34505;SDS011;20748;42.632;23.198;2024-03-06T07:51:02;17.70;;;7.00;;
34505;SDS011;20748;42.632;23.198;2024-03-06T07:53:36;17.45;;;7.15;;
34505;SDS011;20748;42.632;23.198;2024-03-06T07:56:10;19.65;;;8.18;;
34505;SDS011;20748;42.632;23.198;2024-03-06T07:58:44;14.20;;;6.78;;
34505;SDS011;20748;42.632;23.198;2024-03-06T08:01:18;14.93;;;6.95;;
34505;SDS011;20748;42.632;23.198;2024-03-06T08:03:52;12.35;;;6.00;;
34505;SDS011;20748;42.632;23.198;2024-03-06T08:06:28;15.95;;;8.50;;
34505;SDS011;20748;42.632;23.198;2024-03-06T08:09:04;15.35;;;8.10;;
34505;SDS011;20748;42.632;23.198;2024-03-06T08:11:38;17.05;;;7.13;;
34505;SDS011;20748;42.632;23.198;2024-03-06T08:14:12;14.57;;;7.13;;
34505;SDS011;20748;42.632;23.198;2024-03-06T08:16:47;12.35;;;5.80;;
34505;SDS011;20748;42.632;23.198;2024-03-06T08:19:20;11.52;;;5.65;;
34505;SDS011;20748;42.632;23.198;2024-03-06T08:21:58;16.02;;;6.22;;
34505;SDS011;20748;42.632;23.198;2024-03-06T08:24:35;12.45;;;5.82;;
34505;SDS011;20748;42.632;23.198;2024-03-06T08:27:09;12.48;;;6.38;;
34505;SDS011;20748;42.632;23.198;2024-03-06T08:29:42;14.25;;;7.22;;
34505;SDS011;20748;42.632;23.198;2024-03-06T08:32:16;14.98;;;7.05;;
34505;SDS011;20748;42.632;23.198;2024-03-06T08:34:50;16.83;;;8.70;;
34505;SDS011;20748;42.632;23.198;2024-03-06T08:37:25;21.40;;;8.57;;
34505;SDS011;20748;42.632;23.198;2024-03-06T08:39:59;14.75;;;8.70;;
34505;SDS011;20748;42.632;23.198;2024-03-06T08:42:33;17.35;;;10.00;;
34505;SDS011;20748;42.632;23.198;2024-03-06T08:45:07;21.95;;;10.57;;
34505;SDS011;20748;42.632;23.198;2024-03-06T08:47:41;18.85;;;10.93;;
34505;SDS011;20748;42.632;23.198;2024-03-06T08:50:16;19.02;;;10.82;;
34505;SDS011;20748;42.632;23.198;2024-03-06T08:52:51;17.17;;;9.77;;
34505;SDS011;20748;42.632;23.198;2024-03-06T08:55:25;19.92;;;9.25;;
34505;SDS011;20748;42.632;23.198;2024-03-06T08:57:59;19.25;;;9.95;;
34505;SDS011;20748;42.632;23.198;2024-03-06T09:00:33;20.70;;;11.35;;
34505;SDS011;20748;42.632;23.198;2024-03-06T09:03:07;25.08;;;10.13;;
34505;SDS011;20748;42.632;23.198;2024-03-06T09:05:41;15.63;;;8.95;;
34505;SDS011;20748;42.632;23.198;2024-03-06T09:08:16;17.13;;;9.40;;
34505;SDS011;20748;42.632;23.198;2024-03-06T09:10:51;17.63;;;8.65;;
34505;SDS011;20748;42.632;23.198;2024-03-06T09:13:24;16.60;;;8.68;;
34505;SDS011;20748;42.632;23.198;2024-03-06T09:15:58;22.00;;;9.82;;
34505;SDS011;20748;42.632;23.198;2024-03-06T09:18:33;25.35;;;9.73;;
34505;SDS011;20748;42.632;23.198;2024-03-06T09:21:06;22.00;;;9.65;;
34505;SDS011;20748;42.632;23.198;2024-03-06T09:23:41;16.45;;;9.38;;
34505;SDS011;20748;42.632;23.198;2024-03-06T09:26:15;17.85;;;8.80;;
34505;SDS011;20748;42.632;23.198;2024-03-06T09:28:49;19.08;;;10.05;;
34505;SDS011;20748;42.632;23.198;2024-03-06T09:31:22;21.80;;;10.85;;
34505;SDS011;20748;42.632;23.198;2024-03-06T09:33:57;20.67;;;10.13;;
34505;SDS011;20748;42.632;23.198;2024-03-06T09:36:31;17.70;;;9.45;;
34505;SDS011;20748;42.632;23.198;2024-03-06T09:39:07;18.40;;;10.73;;
34505;SDS011;20748;42.632;23.198;2024-03-06T09:41:41;24.42;;;12.73;;
34505;SDS011;20748;42.632;23.198;2024-03-06T09:44:16;19.17;;;10.35;;
34505;SDS011;20748;42.632;23.198;2024-03-06T09:46:50;18.60;;;10.80;;
34505;SDS011;20748;42.632;23.198;2024-03-06T09:49:23;21.98;;;11.93;;
34505;SDS011;20748;42.632;23.198;2024-03-06T09:51:58;20.38;;;12.88;;
34505;SDS011;20748;42.632;23.198;2024-03-06T09:54:34;29.42;;;19.27;;
34505;SDS011;20748;42.632;23.198;2024-03-06T09:57:07;26.73;;;11.77;;
34505;SDS011;20748;42.632;23.198;2024-03-06T09:59:46;24.30;;;14.90;;
34505;SDS011;20748;42.632;23.198;2024-03-06T10:02:30;21.08;;;11.18;;
34505;SDS011;20748;42.632;23.198;2024-03-06T10:05:20;24.98;;;9.90;;
34505;SDS011;20748;42.632;23.198;2024-03-06T10:07:55;18.88;;;10.90;;
34505;SDS011;20748;42.632;23.198;2024-03-06T10:10:30;18.85;;;9.52;;
34505;SDS011;20748;42.632;23.198;2024-03-06T10:13:04;20.77;;;9.00;;
34505;SDS011;20748;42.632;23.198;2024-03-06T10:15:39;22.35;;;9.68;;
34505;SDS011;20748;42.632;23.198;2024-03-06T10:18:14;20.00;;;10.43;;
34505;SDS011;20748;42.632;23.198;2024-03-06T10:20:50;19.67;;;9.05;;
34505;SDS011;20748;42.632;23.198;2024-03-06T10:23:25;16.45;;;7.47;;
34505;SDS011;20748;42.632;23.198;2024-03-06T10:26:02;13.07;;;7.18;;
34505;SDS011;20748;42.632;23.198;2024-03-06T10:28:35;17.55;;;8.52;;
34505;SDS011;20748;42.632;23.198;2024-03-06T10:31:11;14.80;;;8.55;;
34505;SDS011;20748;42.632;23.198;2024-03-06T10:33:44;15.93;;;9.77;;
34505;SDS011;20748;42.632;23.198;2024-03-06T10:36:18;11.32;;;6.65;;
34505;SDS011;20748;42.632;23.198;2024-03-06T10:38:52;12.23;;;6.45;;
34505;SDS011;20748;42.632;23.198;2024-03-06T10:41:30;13.18;;;6.55;;
34505;SDS011;20748;42.632;23.198;2024-03-06T10:44:06;7.75;;;4.68;;
34505;SDS011;20748;42.632;23.198;2024-03-06T10:46:45;11.38;;;5.90;;
34505;SDS011;20748;42.632;23.198;2024-03-06T10:49:25;10.98;;;6.78;;
34505;SDS011;20748;42.632;23.198;2024-03-06T10:52:02;11.88;;;7.18;;
34505;SDS011;20748;42.632;23.198;2024-03-06T10:54:39;11.05;;;5.78;;
34505;SDS011;20748;42.632;23.198;2024-03-06T10:57:15;10.88;;;6.55;;
34505;SDS011;20748;42.632;23.198;2024-03-06T10:59:50;10.32;;;6.30;;
34505;SDS011;20748;42.632;23.198;2024-03-06T11:02:25;10.18;;;5.82;;
34505;SDS011;20748;42.632;23.198;2024-03-06T11:05:01;9.85;;;6.60;;
34505;SDS011;20748;42.632;23.198;2024-03-06T11:07:37;12.15;;;7.15;;
34505;SDS011;20748;42.632;23.198;2024-03-06T11:10:11;11.85;;;6.72;;
34505;SDS011;20748;42.632;23.198;2024-03-06T11:12:50;16.02;;;6.47;;
34505;SDS011;20748;42.632;23.198;2024-03-06T11:15:23;12.95;;;6.68;;
34505;SDS011;20748;42.632;23.198;2024-03-06T11:17:57;11.43;;;6.20;;
34505;SDS011;20748;42.632;23.198;2024-03-06T11:20:35;9.10;;;5.30;;
34505;SDS011;20748;42.632;23.198;2024-03-06T11:23:08;9.88;;;4.72;;
34505;SDS011;20748;42.632;23.198;2024-03-06T11:26:01;10.43;;;4.93;;
34505;SDS011;20748;42.632;23.198;2024-03-06T11:28:38;9.55;;;4.55;;
34505;SDS011;20748;42.632;23.198;2024-03-06T11:31:14;7.45;;;4.47;;
34505;SDS011;20748;42.632;23.198;2024-03-06T11:33:53;11.68;;;5.28;;
34505;SDS011;20748;42.632;23.198;2024-03-06T11:36:28;11.38;;;4.03;;
34505;SDS011;20748;42.632;23.198;2024-03-06T11:39:02;7.68;;;3.67;;
34505;SDS011;20748;42.632;23.198;2024-03-06T11:41:46;6.57;;;4.22;;
34505;SDS011;20748;42.632;23.198;2024-03-06T11:44:22;7.60;;;4.10;;
34505;SDS011;20748;42.632;23.198;2024-03-06T11:46:57;6.13;;;4.28;;
34505;SDS011;20748;42.632;23.198;2024-03-06T11:49:32;7.40;;;4.38;;
34505;SDS011;20748;42.632;23.198;2024-03-06T11:52:07;10.35;;;4.45;;
34505;SDS011;20748;42.632;23.198;2024-03-06T11:54:42;8.90;;;4.68;;
34505;SDS011;20748;42.632;23.198;2024-03-06T11:57:15;12.48;;;4.70;;
34505;SDS011;20748;42.632;23.198;2024-03-06T11:59:54;6.45;;;3.95;;
34505;SDS011;20748;42.632;23.198;2024-03-06T12:02:27;6.65;;;3.92;;
34505;SDS011;20748;42.632;23.198;2024-03-06T12:05:02;6.30;;;3.50;;
34505;SDS011;20748;42.632;23.198;2024-03-06T12:07:44;6.53;;;3.72;;
34505;SDS011;20748;42.632;23.198;2024-03-06T12:10:19;5.03;;;3.22;;
34505;SDS011;20748;42.632;23.198;2024-03-06T12:12:52;5.80;;;3.72;;
34505;SDS011;20748;42.632;23.198;2024-03-06T12:15:27;9.40;;;3.90;;
34505;SDS011;20748;42.632;23.198;2024-03-06T12:18:01;8.27;;;4.22;;
34505;SDS011;20748;42.632;23.198;2024-03-06T12:20:35;4.88;;;3.20;;
34505;SDS011;20748;42.632;23.198;2024-03-06T12:23:22;8.15;;;4.25;;
34505;SDS011;20748;42.632;23.198;2024-03-06T12:26:04;7.18;;;3.33;;
34505;SDS011;20748;42.632;23.198;2024-03-06T12:28:39;5.03;;;3.30;;
34505;SDS011;20748;42.632;23.198;2024-03-06T12:31:14;8.32;;;3.50;;
34505;SDS011;20748;42.632;23.198;2024-03-06T12:33:56;3.53;;;2.70;;
34505;SDS011;20748;42.632;23.198;2024-03-06T12:36:34;6.15;;;3.20;;
34505;SDS011;20748;42.632;23.198;2024-03-06T12:39:08;6.60;;;3.28;;
34505;SDS011;20748;42.632;23.198;2024-03-06T12:41:45;4.35;;;2.60;;
34505;SDS011;20748;42.632;23.198;2024-03-06T12:44:19;5.88;;;3.60;;
34505;SDS011;20748;42.632;23.198;2024-03-06T12:46:54;6.72;;;3.05;;
34505;SDS011;20748;42.632;23.198;2024-03-06T12:49:28;4.25;;;2.72;;
34505;SDS011;20748;42.632;23.198;2024-03-06T12:52:02;4.80;;;2.70;;
34505;SDS011;20748;42.632;23.198;2024-03-06T12:54:37;4.70;;;3.05;;
34505;SDS011;20748;42.632;23.198;2024-03-06T12:57:11;8.88;;;3.10;;
34505;SDS011;20748;42.632;23.198;2024-03-06T12:59:45;4.65;;;2.58;;
34505;SDS011;20748;42.632;23.198;2024-03-06T13:02:20;5.43;;;3.20;;
34505;SDS011;20748;42.632;23.198;2024-03-06T13:04:54;9.18;;;3.65;;
34505;SDS011;20748;42.632;23.198;2024-03-06T13:07:27;4.90;;;2.92;;
34505;SDS011;20748;42.632;23.198;2024-03-06T13:10:01;7.70;;;3.22;;
34505;SDS011;20748;42.632;23.198;2024-03-06T13:12:37;6.00;;;2.92;;
34505;SDS011;20748;42.632;23.198;2024-03-06T13:15:11;6.97;;;3.38;;
34505;SDS011;20748;42.632;23.198;2024-03-06T13:17:46;4.97;;;3.45;;
34505;SDS011;20748;42.632;23.198;2024-03-06T13:20:20;8.07;;;4.78;;
34505;SDS011;20748;42.632;23.198;2024-03-06T13:22:54;9.75;;;4.82;;
34505;SDS011;20748;42.632;23.198;2024-03-06T13:25:27;7.38;;;4.38;;
34505;SDS011;20748;42.632;23.198;2024-03-06T13:28:01;17.25;;;4.88;;
34505;SDS011;20748;42.632;23.198;2024-03-06T13:30:35;10.18;;;5.32;;
34505;SDS011;20748;42.632;23.198;2024-03-06T13:33:11;8.05;;;4.60;;
34505;SDS011;20748;42.632;23.198;2024-03-06T13:35:45;8.55;;;4.55;;
34505;SDS011;20748;42.632;23.198;2024-03-06T13:38:19;8.57;;;4.50;;
34505;SDS011;20748;42.632;23.198;2024-03-06T13:40:53;8.38;;;5.28;;
34505;SDS011;20748;42.632;23.198;2024-03-06T13:43:26;9.77;;;4.55;;
34505;SDS011;20748;42.632;23.198;2024-03-06T13:46:00;9.20;;;4.93;;
34505;SDS011;20748;42.632;23.198;2024-03-06T13:48:35;8.77;;;4.95;;
34505;SDS011;20748;42.632;23.198;2024-03-06T13:51:09;13.73;;;5.05;;
34505;SDS011;20748;42.632;23.198;2024-03-06T13:53:43;10.82;;;6.28;;
34505;SDS011;20748;42.632;23.198;2024-03-06T13:56:16;13.52;;;7.95;;
34505;SDS011;20748;42.632;23.198;2024-03-06T13:58:50;10.48;;;5.25;;
34505;SDS011;20748;42.632;23.198;2024-03-06T14:01:24;9.63;;;5.88;;
34505;SDS011;20748;42.632;23.198;2024-03-06T14:04:00;17.02;;;8.80;;
34505;SDS011;20748;42.632;23.198;2024-03-06T14:06:36;17.90;;;8.30;;
34505;SDS011;20748;42.632;23.198;2024-03-06T14:09:09;19.30;;;10.35;;
34505;SDS011;20748;42.632;23.198;2024-03-06T14:11:45;24.05;;;12.27;;
34505;SDS011;20748;42.632;23.198;2024-03-06T14:14:19;24.73;;;13.38;;
34505;SDS011;20748;42.632;23.198;2024-03-06T14:16:53;14.43;;;7.88;;
34505;SDS011;20748;42.632;23.198;2024-03-06T14:19:30;11.82;;;8.00;;
34505;SDS011;20748;42.632;23.198;2024-03-06T14:22:04;22.88;;;12.00;;
34505;SDS011;20748;42.632;23.198;2024-03-06T14:24:41;28.83;;;14.32;;
34505;SDS011;20748;42.632;23.198;2024-03-06T14:27:14;29.05;;;13.93;;
34505;SDS011;20748;42.632;23.198;2024-03-06T14:29:49;21.58;;;12.43;;
34505;SDS011;20748;42.632;23.198;2024-03-06T14:32:23;16.45;;;9.07;;
34505;SDS011;20748;42.632;23.198;2024-03-06T14:34:59;10.10;;;6.18;;
34505;SDS011;20748;42.632;23.198;2024-03-06T14:37:33;16.85;;;8.05;;
34505;SDS011;20748;42.632;23.198;2024-03-06T14:40:07;16.98;;;8.73;;
34505;SDS011;20748;42.632;23.198;2024-03-06T14:42:42;21.85;;;12.05;;
34505;SDS011;20748;42.632;23.198;2024-03-06T14:45:16;14.55;;;8.65;;
34505;SDS011;20748;42.632;23.198;2024-03-06T14:47:49;12.38;;;7.72;;
34505;SDS011;20748;42.632;23.198;2024-03-06T14:50:25;19.25;;;9.57;;
34505;SDS011;20748;42.632;23.198;2024-03-06T14:52:58;14.15;;;8.30;;
34505;SDS011;20748;42.632;23.198;2024-03-06T14:55:33;35.85;;;15.40;;
34505;SDS011;20748;42.632;23.198;2024-03-06T14:58:14;26.30;;;13.32;;
34505;SDS011;20748;42.632;23.198;2024-03-06T15:00:48;49.58;;;25.92;;
34505;SDS011;20748;42.632;23.198;2024-03-06T15:03:23;23.38;;;12.25;;
34505;SDS011;20748;42.632;23.198;2024-03-06T15:05:58;14.93;;;8.50;;
34505;SDS011;20748;42.632;23.198;2024-03-06T15:08:32;17.95;;;11.68;;